KRBG/RBG METAR and TAF weather

Enter ICAO airport designator
Station Type Date Time Source
KRBG METAR 2022/12/04 13:04 UTC NOAA

KRBG 041304Z AUTO 00000KT BKN004 OVC043 02/00 A2988 RMK AO2 T00170000 $


Station Type Date Time Source
KRBG Decoded METAR 2022/12/04 13:04 UTC NOAA

ROSEBURG REGIONAL AIRPORT, OR, United States (KRBG) 43-14N 123-21W 154M
Dec 04, 2022 - 08:04 AM EST / 2022.12.04 1304 UTC
Wind: Calm:0
Sky conditions: overcast
Temperature: 35.1 F (1.7 C)
Dew Point: 32.0 F (0.0 C)
Relative Humidity: 88%
Pressure (altimeter): 29.88 in. Hg (1011 hPa)
ob: KRBG 041304Z AUTO 00000KT BKN004 OVC043 02/00 A2988 RMK AO2 T00170000
cycle: 13

Station Type Date Time Source
KRBG TAF 2022/12/04 12:42 UTC NOAA

TAF KRBG 041140Z 0412/0512 35003KT P6SM -RA SCT025 OVC040
FM041300 VRB03KT P6SM -SHRA BKN025 OVC040
FM041400 VRB03KT 5SM -RA BR OVC015
FM042200 VRB03KT P6SM -SHRA OVC025

Example: see airport list